createdAt,value
2019-02-14T00:00:05.239Z,995.34
2019-02-14T00:01:04.779Z,995.53
2019-02-14T00:02:05.248Z,995.45
2019-02-14T00:03:04.938Z,995.42
2019-02-14T00:04:04.962Z,995.39
2019-02-14T00:05:05.155Z,995.31
2019-02-14T00:06:05.466Z,995.17
2019-02-14T00:07:10.483Z,995.17
2019-02-14T00:08:05.052Z,995.42
2019-02-14T00:09:04.775Z,995.31
2019-02-14T00:10:04.772Z,995.31
2019-02-14T00:11:04.959Z,995.34
2019-02-14T00:12:05.063Z,995.31
2019-02-14T00:13:04.798Z,995.37
2019-02-14T00:14:04.939Z,995.37
2019-02-14T00:15:05.027Z,995.34
2019-02-14T00:16:04.534Z,995.43
2019-02-14T00:17:04.740Z,995.23
2019-02-14T00:18:04.888Z,995.40
2019-02-14T00:19:05.012Z,995.20
2019-02-14T00:20:05.404Z,995.29
2019-02-14T00:21:05.501Z,995.51
2019-02-14T00:22:04.700Z,995.23
2019-02-14T00:23:04.716Z,995.34
2019-02-14T00:24:04.987Z,995.40
2019-02-14T00:25:05.013Z,995.37
2019-02-14T00:26:05.258Z,995.51
2019-02-14T00:27:05.285Z,995.48
2019-02-14T00:28:04.517Z,995.40
2019-02-14T00:29:04.856Z,995.23
2019-02-14T00:30:05.269Z,995.18
2019-02-14T00:31:04.571Z,995.26
2019-02-14T00:32:05.238Z,995.06
2019-02-14T00:33:04.705Z,995.26
2019-02-14T00:34:04.907Z,995.15
2019-02-14T00:35:04.582Z,995.15
2019-02-14T00:36:05.309Z,995.20
2019-02-14T00:37:05.479Z,995.12
2019-02-14T00:38:04.841Z,995.12
2019-02-14T00:39:05.381Z,995.18
2019-02-14T00:40:05.439Z,995.04
2019-02-14T00:41:09.993Z,995.23
2019-02-14T00:42:05.494Z,995.09
2019-02-14T00:43:04.846Z,995.21
2019-02-14T00:44:04.926Z,995.01
2019-02-14T00:45:05.215Z,995.23
2019-02-14T00:46:05.178Z,995.09
2019-02-14T00:47:04.496Z,995.21
2019-02-14T00:48:05.368Z,995.21
2019-02-14T00:49:05.018Z,995.15
2019-02-14T00:50:05.094Z,995.18
2019-02-14T00:51:05.208Z,995.21
2019-02-14T00:52:05.222Z,995.18
2019-02-14T00:53:05.367Z,995.23
2019-02-14T00:54:05.520Z,995.15
2019-02-14T00:55:04.619Z,995.26
2019-02-14T00:56:04.624Z,995.21
2019-02-14T00:57:04.870Z,995.21
2019-02-14T00:58:05.107Z,995.18
2019-02-14T00:59:04.476Z,995.21
2019-02-14T01:00:06.397Z,995.24
2019-02-14T01:01:05.118Z,995.29
2019-02-14T01:02:05.125Z,995.07
2019-02-14T01:03:05.363Z,995.15
2019-02-14T01:04:05.414Z,995.24
2019-02-14T01:05:04.590Z,995.07
2019-02-14T01:06:04.917Z,995.18
2019-02-14T01:07:04.656Z,995.15
2019-02-14T01:08:04.681Z,995.07
2019-02-14T01:09:04.964Z,995.12
2019-02-14T01:10:05.281Z,995.18
2019-02-14T01:11:04.661Z,995.04
2019-02-14T01:12:04.883Z,995.26
2019-02-14T01:13:05.049Z,995.24
2019-02-14T01:14:05.204Z,995.21
2019-02-14T01:15:04.604Z,995.32
2019-02-14T01:16:04.612Z,995.21
2019-02-14T01:17:05.376Z,995.35
2019-02-14T01:18:04.720Z,995.32
2019-02-14T01:19:04.894Z,995.15
2019-02-14T01:20:05.205Z,995.27
2019-02-14T01:21:04.675Z,995.27
2019-02-14T01:22:04.748Z,995.21
2019-02-14T01:23:05.299Z,995.21
2019-02-14T01:24:05.303Z,995.21
2019-02-14T01:25:04.504Z,995.10
2019-02-14T01:26:04.626Z,995.18
2019-02-14T01:27:04.799Z,995.18
2019-02-14T01:28:05.409Z,995.15
2019-02-14T01:29:10.148Z,995.10
2019-02-14T01:30:04.553Z,995.07
2019-02-14T01:31:04.716Z,995.29
2019-02-14T01:32:04.874Z,995.43
2019-02-14T01:33:04.959Z,995.32
2019-02-14T01:34:04.981Z,995.24
2019-02-14T01:35:05.131Z,995.29
2019-02-14T01:36:05.533Z,995.27
2019-02-14T01:37:04.689Z,995.35
2019-02-14T01:38:04.707Z,995.35
2019-02-14T01:39:04.916Z,995.24
2019-02-14T01:40:04.543Z,995.30
2019-02-14T01:41:04.787Z,995.41
2019-02-14T01:42:04.763Z,995.30
2019-02-14T01:43:05.010Z,995.18
2019-02-14T01:44:05.148Z,995.21
2019-02-14T01:45:05.088Z,995.35
2019-02-14T01:46:05.412Z,995.41
2019-02-14T01:47:05.400Z,995.30
2019-02-14T01:48:04.837Z,995.32
2019-02-14T01:49:04.543Z,995.21
2019-02-14T01:50:04.846Z,995.30
2019-02-14T01:51:04.878Z,995.24
2019-02-14T01:52:05.025Z,995.30
2019-02-14T01:53:05.516Z,995.44
2019-02-14T01:54:04.526Z,995.49
2019-02-14T01:55:04.632Z,995.44
2019-02-14T01:56:04.784Z,995.38
2019-02-14T01:57:05.046Z,995.44
2019-02-14T01:58:05.438Z,995.38
2019-02-14T01:59:05.341Z,995.41
2019-02-14T02:00:04.585Z,995.38
2019-02-14T02:01:04.713Z,995.32
2019-02-14T02:02:04.753Z,995.27
2019-02-14T02:03:04.889Z,995.32
2019-02-14T02:04:05.123Z,995.32
2019-02-14T02:05:05.167Z,995.30
2019-02-14T02:06:05.315Z,995.35
2019-02-14T02:07:04.771Z,995.52
2019-02-14T02:08:04.777Z,995.38
2019-02-14T02:09:04.880Z,995.41
2019-02-14T02:10:04.989Z,995.38
2019-02-14T02:11:05.142Z,995.38
2019-02-14T02:12:05.286Z,995.33
2019-02-14T02:13:04.624Z,995.38
2019-02-14T02:14:04.803Z,995.55
2019-02-14T02:15:05.299Z,995.38
2019-02-14T02:16:04.470Z,995.41
2019-02-14T02:17:04.745Z,995.33
2019-02-14T02:18:04.940Z,995.27
2019-02-14T02:19:05.096Z,995.38
2019-02-14T02:20:05.239Z,995.38
2019-02-14T02:21:04.797Z,995.33
2019-02-14T02:22:04.793Z,995.30
2019-02-14T02:23:05.140Z,995.27
2019-02-14T02:24:05.475Z,995.13
2019-02-14T02:25:04.621Z,995.47
2019-02-14T02:26:05.305Z,995.30
2019-02-14T02:27:05.383Z,995.33
2019-02-14T02:28:05.591Z,995.38
2019-02-14T02:29:09.687Z,995.27
2019-02-14T02:30:05.100Z,995.27
2019-02-14T02:31:05.176Z,995.27
2019-02-14T02:32:05.264Z,995.27
2019-02-14T02:33:05.389Z,995.41
2019-02-14T02:34:04.863Z,995.30
2019-02-14T02:35:04.674Z,995.41
2019-02-14T02:36:05.315Z,995.35
2019-02-14T02:37:04.700Z,995.30
2019-02-14T02:38:04.940Z,995.27
2019-02-14T02:39:05.083Z,995.30
2019-02-14T02:40:05.209Z,995.33
2019-02-14T02:41:04.618Z,995.47
2019-02-14T02:42:04.764Z,995.55
2019-02-14T02:43:05.431Z,995.44
2019-02-14T02:44:05.063Z,995.47
2019-02-14T02:45:05.351Z,995.44
2019-02-14T02:46:04.981Z,995.27
2019-02-14T02:47:04.618Z,995.33
2019-02-14T02:48:04.673Z,995.22
2019-02-14T02:49:05.159Z,995.36
2019-02-14T02:50:04.526Z,995.33
2019-02-14T02:51:04.742Z,995.36
2019-02-14T02:52:04.772Z,995.52
2019-02-14T02:53:04.888Z,995.24
2019-02-14T02:54:05.205Z,995.19
2019-02-14T02:55:05.305Z,995.22
2019-02-14T02:56:05.311Z,995.22
2019-02-14T02:57:04.938Z,995.41
2019-02-14T02:58:09.721Z,995.30
2019-02-14T02:59:05.156Z,995.36
2019-02-14T03:00:05.283Z,995.52
2019-02-14T03:01:04.628Z,995.44
2019-02-14T03:02:04.945Z,995.47
2019-02-14T03:03:04.964Z,995.22
2019-02-14T03:04:05.095Z,995.38
2019-02-14T03:05:05.382Z,995.30
2019-02-14T03:06:11.093Z,995.47
2019-02-14T03:07:04.759Z,995.52
2019-02-14T03:08:04.908Z,995.36
2019-02-14T03:09:05.119Z,995.41
2019-02-14T03:10:05.118Z,995.47
2019-02-14T03:11:04.641Z,995.41
2019-02-14T03:12:04.864Z,995.30
2019-02-14T03:13:04.859Z,995.39
2019-02-14T03:14:05.113Z,995.39
2019-02-14T03:15:05.198Z,995.44
2019-02-14T03:16:04.513Z,995.50
2019-02-14T03:17:04.603Z,995.41
2019-02-14T03:18:04.951Z,995.50
2019-02-14T03:19:04.473Z,995.44
2019-02-14T03:20:04.769Z,995.33
2019-02-14T03:21:04.993Z,995.41
2019-02-14T03:22:05.126Z,995.44
2019-02-14T03:23:05.177Z,995.47
2019-02-14T03:24:05.196Z,995.30
2019-02-14T03:25:05.327Z,995.41
2019-02-14T03:26:04.538Z,995.44
2019-02-14T03:27:04.922Z,995.36
2019-02-14T03:28:05.098Z,995.47
2019-02-14T03:29:05.262Z,995.53
2019-02-14T03:30:04.606Z,995.47
2019-02-14T03:31:04.652Z,995.25
2019-02-14T03:32:10.057Z,995.30
2019-02-14T03:33:04.563Z,995.36
2019-02-14T03:34:04.744Z,995.33
2019-02-14T03:35:05.192Z,995.39
2019-02-14T03:36:05.059Z,995.39
2019-02-14T03:37:04.455Z,995.53
2019-02-14T03:38:05.212Z,995.47
2019-02-14T03:39:05.557Z,995.36
2019-02-14T03:40:04.664Z,995.44
2019-02-14T03:41:04.759Z,995.30
2019-02-14T03:42:04.931Z,995.39
2019-02-14T03:43:05.004Z,995.44
2019-02-14T03:44:05.005Z,995.28
2019-02-14T03:45:05.423Z,995.36
2019-02-14T03:46:04.631Z,995.30
2019-02-14T03:47:05.042Z,995.44
2019-02-14T03:48:04.782Z,995.36
2019-02-14T03:49:05.379Z,995.44
2019-02-14T03:50:04.800Z,995.39
2019-02-14T03:51:05.147Z,995.39
2019-02-14T03:52:05.373Z,995.31
2019-02-14T03:53:04.813Z,995.42
2019-02-14T03:54:05.283Z,995.42
2019-02-14T03:55:05.557Z,995.56
2019-02-14T03:56:04.594Z,995.39
2019-02-14T03:57:05.018Z,995.53
2019-02-14T03:58:04.664Z,995.45
2019-02-14T03:59:05.454Z,995.60
2019-02-14T04:00:05.487Z,995.56
2019-02-14T04:01:04.745Z,995.56
2019-02-14T04:02:04.793Z,995.53
2019-02-14T04:03:05.124Z,995.69
2019-02-14T04:04:05.324Z,995.60
2019-02-14T04:05:05.034Z,995.77
2019-02-14T04:06:10.443Z,995.63
2019-02-14T04:07:04.806Z,995.56
2019-02-14T04:08:05.132Z,995.63
2019-02-14T04:09:05.201Z,995.56
2019-02-14T04:10:05.449Z,995.63
2019-02-14T04:11:05.554Z,995.72
2019-02-14T04:12:04.583Z,995.69
2019-02-14T04:13:04.628Z,995.86
2019-02-14T04:14:05.115Z,995.74
2019-02-14T04:15:05.097Z,995.72
2019-02-14T04:16:05.382Z,995.69
2019-02-14T04:17:04.865Z,995.66
2019-02-14T04:18:04.493Z,995.88
2019-02-14T04:19:04.527Z,995.83
2019-02-14T04:20:04.746Z,995.69
2019-02-14T04:21:04.908Z,995.72
2019-02-14T04:22:05.009Z,995.83
2019-02-14T04:23:05.185Z,995.83
2019-02-14T04:24:04.532Z,995.83
2019-02-14T04:25:05.064Z,995.97
2019-02-14T04:26:04.674Z,995.86
2019-02-14T04:27:05.187Z,995.94
2019-02-14T04:28:05.192Z,995.69
2019-02-14T04:29:04.638Z,995.77
2019-02-14T04:30:05.459Z,995.75
2019-02-14T04:31:05.192Z,995.66
2019-02-14T04:32:05.332Z,995.72
2019-02-14T04:33:05.452Z,995.63
2019-02-14T04:34:04.583Z,995.66
2019-02-14T04:35:04.734Z,995.64
2019-02-14T04:36:04.874Z,995.56
2019-02-14T04:37:05.104Z,995.64
2019-02-14T04:38:05.357Z,995.72
2019-02-14T04:39:05.491Z,995.56
2019-02-14T04:40:05.200Z,995.75
2019-02-14T04:41:05.330Z,995.61
2019-02-14T04:42:05.483Z,995.64
2019-02-14T04:43:04.707Z,995.56
2019-02-14T04:44:05.112Z,995.69
2019-02-14T04:45:05.603Z,995.66
2019-02-14T04:46:04.669Z,995.72
2019-02-14T04:47:05.120Z,995.83
2019-02-14T04:48:05.228Z,995.75
2019-02-14T04:49:04.515Z,995.72
2019-02-14T04:50:04.686Z,995.80
2019-02-14T04:51:05.184Z,995.69
2019-02-14T04:52:04.537Z,995.66
2019-02-14T04:53:04.642Z,995.80
2019-02-14T04:54:04.767Z,995.80
2019-02-14T04:55:04.925Z,995.72
2019-02-14T04:56:04.904Z,995.61
2019-02-14T04:57:04.504Z,995.64
2019-02-14T04:58:04.689Z,995.48
2019-02-14T04:59:05.083Z,995.53
2019-02-14T05:00:10.559Z,995.53
2019-02-14T05:01:04.963Z,995.50
2019-02-14T05:02:05.240Z,995.61
2019-02-14T05:03:04.587Z,995.48
2019-02-14T05:04:05.180Z,995.64
2019-02-14T05:05:04.641Z,995.64
2019-02-14T05:06:05.038Z,995.61
2019-02-14T05:07:04.717Z,995.66
2019-02-14T05:08:04.926Z,995.53
2019-02-14T05:09:05.216Z,995.61
2019-02-14T05:10:05.318Z,995.61
2019-02-14T05:11:04.847Z,995.61
2019-02-14T05:12:04.878Z,995.53
2019-02-14T05:13:05.071Z,995.61
2019-02-14T05:14:04.545Z,995.69
2019-02-14T05:15:04.617Z,995.66
2019-02-14T05:16:05.247Z,995.72
2019-02-14T05:17:04.549Z,995.69
2019-02-14T05:18:05.198Z,995.72
2019-02-14T05:19:04.514Z,995.61
2019-02-14T05:20:04.652Z,995.69
2019-02-14T05:21:04.815Z,995.77
2019-02-14T05:22:04.973Z,995.86
2019-02-14T05:23:04.756Z,995.91
2019-02-14T05:24:04.869Z,995.97
2019-02-14T05:25:05.711Z,995.94
2019-02-14T05:26:05.336Z,995.94
2019-02-14T05:27:04.808Z,995.94
2019-02-14T05:28:05.384Z,996.03
2019-02-14T05:29:09.803Z,996.05
2019-02-14T05:30:05.195Z,996.00
2019-02-14T05:31:04.971Z,995.94
2019-02-14T05:32:04.473Z,995.89
2019-02-14T05:33:05.289Z,995.75
2019-02-14T05:34:04.840Z,995.77
2019-02-14T05:35:04.738Z,995.69
2019-02-14T05:36:04.873Z,995.64
2019-02-14T05:37:04.958Z,995.72
2019-02-14T05:38:05.125Z,995.66
2019-02-14T05:39:05.443Z,995.48
2019-02-14T05:40:05.419Z,995.77
2019-02-14T05:41:04.757Z,995.80
2019-02-14T05:42:04.760Z,995.64
2019-02-14T05:43:05.425Z,995.66
2019-02-14T05:44:04.795Z,995.72
2019-02-14T05:45:05.102Z,995.64
2019-02-14T05:46:04.834Z,995.64
2019-02-14T05:47:05.019Z,995.69
2019-02-14T05:48:04.978Z,995.66
2019-02-14T05:49:04.673Z,995.83
2019-02-14T05:50:05.144Z,995.86
2019-02-14T05:51:05.384Z,995.89
2019-02-14T05:52:04.734Z,995.89
2019-02-14T05:53:04.720Z,995.86
2019-02-14T05:54:04.975Z,995.89
2019-02-14T05:55:04.607Z,995.83
2019-02-14T05:56:04.883Z,995.80
2019-02-14T05:57:04.572Z,995.97
2019-02-14T05:58:04.779Z,995.77
2019-02-14T05:59:05.231Z,995.88
2019-02-14T06:00:05.278Z,995.86
2019-02-14T06:01:05.334Z,996.05
2019-02-14T06:02:05.094Z,995.94
2019-02-14T06:03:05.283Z,995.88
2019-02-14T06:04:04.681Z,995.88
2019-02-14T06:05:04.816Z,996.02
2019-02-14T06:06:04.989Z,996.05
2019-02-14T06:07:05.399Z,995.72
2019-02-14T06:08:04.495Z,996.00
2019-02-14T06:09:05.223Z,995.94
2019-02-14T06:10:05.615Z,995.94
2019-02-14T06:11:04.601Z,995.83
2019-02-14T06:12:04.643Z,996.05
2019-02-14T06:13:05.302Z,995.91
2019-02-14T06:14:05.479Z,995.97
2019-02-14T06:15:04.570Z,996.08
2019-02-14T06:16:04.950Z,996.00
2019-02-14T06:17:04.797Z,995.94
2019-02-14T06:18:05.457Z,996.11
2019-02-14T06:19:05.091Z,995.91
2019-02-14T06:20:04.640Z,996.00
2019-02-14T06:21:05.017Z,996.11
2019-02-14T06:22:05.304Z,996.02
2019-02-14T06:23:05.432Z,996.16
2019-02-14T06:24:04.810Z,995.91
2019-02-14T06:25:05.104Z,995.94
2019-02-14T06:26:05.303Z,995.97
2019-02-14T06:27:04.925Z,996.08
2019-02-14T06:28:05.117Z,996.11
2019-02-14T06:29:09.698Z,996.11
2019-02-14T06:30:05.009Z,996.11
2019-02-14T06:31:05.332Z,996.02
2019-02-14T06:32:05.006Z,996.16
2019-02-14T06:33:04.515Z,996.19
2019-02-14T06:34:05.080Z,996.25
2019-02-14T06:35:05.210Z,996.39
2019-02-14T06:36:05.363Z,996.27
2019-02-14T06:37:10.237Z,996.27
2019-02-14T06:38:04.942Z,996.41
2019-02-14T06:39:05.377Z,996.36
2019-02-14T06:40:04.633Z,996.33
2019-02-14T06:41:04.817Z,996.30
2019-02-14T06:42:05.086Z,996.25
2019-02-14T06:43:05.223Z,996.30
2019-02-14T06:44:05.455Z,996.19
2019-02-14T06:45:04.556Z,996.22
2019-02-14T06:46:05.075Z,996.25
2019-02-14T06:47:05.194Z,996.41
2019-02-14T06:48:04.873Z,996.51
2019-02-14T06:49:10.264Z,996.47
2019-02-14T06:50:04.668Z,996.36
2019-02-14T06:51:04.923Z,996.41
2019-02-14T06:52:05.377Z,996.36
2019-02-14T06:53:05.403Z,996.33
2019-02-14T06:54:04.996Z,996.25
2019-02-14T06:55:05.427Z,996.36
2019-02-14T06:56:05.119Z,996.38
2019-02-14T06:57:05.428Z,996.25
2019-02-14T06:58:04.747Z,996.25
2019-02-14T06:59:04.966Z,996.30
2019-02-14T07:00:04.999Z,996.36
2019-02-14T07:01:05.394Z,996.41
2019-02-14T07:02:04.834Z,996.33
2019-02-14T07:03:05.501Z,996.47
2019-02-14T07:04:05.046Z,996.47
2019-02-14T07:05:04.666Z,996.57
2019-02-14T07:06:04.931Z,996.74
2019-02-14T07:07:05.011Z,996.76
2019-02-14T07:08:05.230Z,996.57
2019-02-14T07:09:05.398Z,996.49
2019-02-14T07:10:05.521Z,996.49
2019-02-14T07:11:05.002Z,996.76
2019-02-14T07:12:05.260Z,996.65
2019-02-14T07:13:05.436Z,996.82
2019-02-14T07:14:04.716Z,996.65
2019-02-14T07:15:04.638Z,996.71
2019-02-14T07:16:04.753Z,996.62
2019-02-14T07:17:05.252Z,996.57
2019-02-14T07:18:05.466Z,996.62
2019-02-14T07:19:04.838Z,996.60
2019-02-14T07:20:04.996Z,996.62
2019-02-14T07:21:05.012Z,996.54
2019-02-14T07:22:05.193Z,996.79
2019-02-14T07:23:05.379Z,996.62
2019-02-14T07:24:04.587Z,996.68
2019-02-14T07:25:04.861Z,996.38
2019-02-14T07:26:05.103Z,996.51
2019-02-14T07:27:05.139Z,996.47
2019-02-14T07:28:04.502Z,996.60
2019-02-14T07:29:04.614Z,996.60
2019-02-14T07:30:04.739Z,996.48
2019-02-14T07:31:10.070Z,996.59
2019-02-14T07:32:05.541Z,996.54
2019-02-14T07:33:04.888Z,996.44
2019-02-14T07:34:04.733Z,996.51
2019-02-14T07:35:04.778Z,996.35
2019-02-14T07:36:04.932Z,996.46
2019-02-14T07:37:05.472Z,996.44
2019-02-14T07:38:04.596Z,996.38
2019-02-14T07:39:04.901Z,996.38
2019-02-14T07:40:05.173Z,996.38
2019-02-14T07:41:05.278Z,996.44
2019-02-14T07:42:04.887Z,996.38
2019-02-14T07:43:05.460Z,996.41
2019-02-14T07:44:04.752Z,996.38
2019-02-14T07:45:05.263Z,996.35
2019-02-14T07:46:05.361Z,996.32
2019-02-14T07:47:04.641Z,996.44
2019-02-14T07:48:04.822Z,996.54
2019-02-14T07:49:04.498Z,996.38
2019-02-14T07:50:05.227Z,996.35
2019-02-14T07:51:04.863Z,996.21
2019-02-14T07:52:04.971Z,996.32
2019-02-14T07:53:05.047Z,996.30
2019-02-14T07:54:05.265Z,996.44
2019-02-14T07:55:05.076Z,996.48
2019-02-14T07:56:04.818Z,996.41
2019-02-14T07:57:05.356Z,996.44
2019-02-14T07:58:05.460Z,996.44
2019-02-14T07:59:04.649Z,996.27
2019-02-14T08:00:05.118Z,996.41
2019-02-14T08:01:04.612Z,996.56
2019-02-14T08:02:05.042Z,996.59
2019-02-14T08:03:05.118Z,996.62
2019-02-14T08:04:05.362Z,996.59
2019-02-14T08:05:05.339Z,996.65
2019-02-14T08:06:05.155Z,996.65
2019-02-14T08:07:05.033Z,996.59
2019-02-14T08:08:05.116Z,996.56
2019-02-14T08:09:05.304Z,996.46
2019-02-14T08:10:04.554Z,996.59
2019-02-14T08:11:04.781Z,996.62
2019-02-14T08:12:05.034Z,996.65
2019-02-14T08:13:05.094Z,996.59
2019-02-14T08:14:05.457Z,996.65
2019-02-14T08:15:04.745Z,996.76
2019-02-14T08:16:04.912Z,996.79
2019-02-14T08:17:04.983Z,996.62
2019-02-14T08:18:05.189Z,996.62
2019-02-14T08:19:05.298Z,996.62
2019-02-14T08:20:04.984Z,996.51
2019-02-14T08:21:05.354Z,996.46
2019-02-14T08:22:04.890Z,996.56
2019-02-14T08:23:04.820Z,996.56
2019-02-14T08:24:04.822Z,996.51
2019-02-14T08:25:05.152Z,996.43
2019-02-14T08:26:11.309Z,996.51
2019-02-14T08:27:05.070Z,996.43
2019-02-14T08:28:05.338Z,996.41
2019-02-14T08:29:05.473Z,996.53
2019-02-14T08:30:04.588Z,996.51
2019-02-14T08:31:04.639Z,996.53
2019-02-14T08:32:05.400Z,996.48
2019-02-14T08:33:04.758Z,996.62
2019-02-14T08:34:04.859Z,996.51
2019-02-14T08:35:06.924Z,996.56
2019-02-14T08:36:04.691Z,996.64
2019-02-14T08:37:05.486Z,996.70
2019-02-14T08:38:04.419Z,996.43
2019-02-14T08:39:04.789Z,996.64
2019-02-14T08:40:05.020Z,996.46
2019-02-14T08:41:05.212Z,996.48
2019-02-14T08:42:04.890Z,996.53
2019-02-14T08:43:05.069Z,996.35
2019-02-14T08:44:05.557Z,996.50
2019-02-14T08:45:05.224Z,996.50
2019-02-14T08:46:05.387Z,996.50
2019-02-14T08:47:05.044Z,996.47
2019-02-14T08:48:05.406Z,996.46
2019-02-14T08:49:04.495Z,996.50
2019-02-14T08:50:05.274Z,996.58
2019-02-14T08:51:05.412Z,996.64
2019-02-14T08:52:04.536Z,996.81
2019-02-14T08:53:04.633Z,996.67
2019-02-14T08:54:05.253Z,996.58
2019-02-14T08:55:05.483Z,996.64
2019-02-14T08:56:09.669Z,996.75
2019-02-14T08:57:04.726Z,996.61
2019-02-14T08:58:04.934Z,996.58
2019-02-14T08:59:05.123Z,996.58
2019-02-14T09:00:04.812Z,996.55
2019-02-14T09:01:04.828Z,996.58
2019-02-14T09:02:05.107Z,996.61
2019-02-14T09:03:04.503Z,996.64
2019-02-14T09:04:04.807Z,996.81
2019-02-14T09:05:04.956Z,996.78
2019-02-14T09:06:05.355Z,996.72
2019-02-14T09:07:05.533Z,996.67
2019-02-14T09:08:04.486Z,996.72
2019-02-14T09:09:04.651Z,996.58
2019-02-14T09:10:04.715Z,996.58
2019-02-14T09:11:05.218Z,996.75
2019-02-14T09:12:05.442Z,996.75
2019-02-14T09:13:04.674Z,996.81
2019-02-14T09:14:04.568Z,996.72
2019-02-14T09:15:05.039Z,996.83
2019-02-14T09:16:05.132Z,996.86
2019-02-14T09:17:05.341Z,996.78
2019-02-14T09:18:04.628Z,996.86
2019-02-14T09:19:04.937Z,996.83
2019-02-14T09:20:05.479Z,996.80
2019-02-14T09:21:04.727Z,996.80
2019-02-14T09:22:04.701Z,996.75
2019-02-14T09:23:05.478Z,996.83
2019-02-14T09:24:05.153Z,996.94
2019-02-14T09:25:05.178Z,996.89
2019-02-14T09:26:05.409Z,996.92
2019-02-14T09:27:04.467Z,996.94
2019-02-14T09:28:05.064Z,996.97
2019-02-14T09:29:14.369Z,996.97
2019-02-14T09:30:04.819Z,997.17
2019-02-14T09:31:05.531Z,997.08
2019-02-14T09:32:04.981Z,997.05
2019-02-14T09:33:05.347Z,997.05
2019-02-14T09:34:05.398Z,996.97
2019-02-14T09:35:05.097Z,997.08
2019-02-14T09:36:04.636Z,997.08
2019-02-14T09:37:04.808Z,996.91
2019-02-14T09:38:04.862Z,997.00
2019-02-14T09:39:05.402Z,997.00
2019-02-14T09:40:05.032Z,997.02
2019-02-14T09:41:05.295Z,997.05
2019-02-14T09:42:05.396Z,996.99
2019-02-14T09:43:04.809Z,997.02
2019-02-14T09:44:05.089Z,997.08
2019-02-14T09:45:05.434Z,997.11
2019-02-14T09:46:04.842Z,996.97
2019-02-14T09:47:05.319Z,997.25
2019-02-14T09:48:04.882Z,997.25
2019-02-14T09:49:04.852Z,997.02
2019-02-14T09:50:05.013Z,997.02
2019-02-14T09:51:04.915Z,997.10
2019-02-14T09:52:05.025Z,997.08
2019-02-14T09:53:04.655Z,997.02
2019-02-14T09:54:04.841Z,996.96
2019-02-14T09:55:05.035Z,996.93
2019-02-14T09:56:04.593Z,996.99
2019-02-14T09:57:04.676Z,997.05
2019-02-14T09:58:04.942Z,996.82
2019-02-14T09:59:05.615Z,996.79
2019-02-14T10:00:04.947Z,996.99
2019-02-14T10:01:04.738Z,996.82
2019-02-14T10:02:05.046Z,996.88
2019-02-14T10:03:04.680Z,996.82
2019-02-14T10:04:04.614Z,996.85
2019-02-14T10:05:05.207Z,996.99
2019-02-14T10:06:05.448Z,996.87
2019-02-14T10:07:04.853Z,997.04
2019-02-14T10:08:13.327Z,996.93
2019-02-14T10:09:05.161Z,996.90
2019-02-14T10:10:05.358Z,996.85
2019-02-14T10:11:04.945Z,996.90
2019-02-14T10:12:05.512Z,997.01
2019-02-14T10:13:05.116Z,996.79
2019-02-14T10:14:05.213Z,996.84
2019-02-14T10:15:04.872Z,996.79
2019-02-14T10:16:05.027Z,996.79
2019-02-14T10:17:05.317Z,996.76
2019-02-14T10:18:04.727Z,996.79
2019-02-14T10:19:05.269Z,996.79
2019-02-14T10:20:05.081Z,996.79
2019-02-14T10:21:05.140Z,996.76
2019-02-14T10:22:05.168Z,996.81
2019-02-14T10:23:05.371Z,996.87
2019-02-14T10:24:05.366Z,996.76
2019-02-14T10:25:04.822Z,996.81
2019-02-14T10:26:04.944Z,996.93
2019-02-14T10:27:04.579Z,996.81
2019-02-14T10:28:05.190Z,996.70
2019-02-14T10:29:10.610Z,996.59
2019-02-14T10:30:05.013Z,996.67
2019-02-14T10:31:05.389Z,996.73
2019-02-14T10:32:05.536Z,996.61
2019-02-14T10:33:04.670Z,996.67
2019-02-14T10:34:05.092Z,996.58
2019-02-14T10:35:05.178Z,996.61
2019-02-14T10:36:04.992Z,996.58
2019-02-14T10:37:04.766Z,996.45
2019-02-14T10:38:05.431Z,996.50
2019-02-14T10:39:04.776Z,996.40
2019-02-14T10:40:04.957Z,996.40
2019-02-14T10:41:04.740Z,996.34
2019-02-14T10:42:05.050Z,996.50
2019-02-14T10:43:05.084Z,996.53
2019-02-14T10:44:05.300Z,996.50
2019-02-14T10:45:05.399Z,996.47
2019-02-14T10:46:04.987Z,996.55
2019-02-14T10:47:05.085Z,996.37
2019-02-14T10:48:05.284Z,996.45
2019-02-14T10:49:09.760Z,996.45
2019-02-14T10:50:05.143Z,996.31
2019-02-14T10:51:05.287Z,996.34
2019-02-14T10:52:05.426Z,996.42
2019-02-14T10:53:04.742Z,996.34
2019-02-14T10:54:04.763Z,996.45
2019-02-14T10:55:05.035Z,996.19
2019-02-14T10:56:04.447Z,996.47
2019-02-14T10:57:04.766Z,996.39
2019-02-14T10:58:05.003Z,996.36
2019-02-14T10:59:04.487Z,996.45
2019-02-14T11:00:05.160Z,996.45
2019-02-14T11:01:05.214Z,996.36
2019-02-14T11:02:04.885Z,996.30
2019-02-14T11:03:05.094Z,996.22
2019-02-14T11:04:05.269Z,996.42
2019-02-14T11:05:04.588Z,996.42
2019-02-14T11:06:04.754Z,996.28
2019-02-14T11:07:05.074Z,996.33
2019-02-14T11:08:05.210Z,996.33
2019-02-14T11:09:05.574Z,996.30
2019-02-14T11:10:04.670Z,996.27
2019-02-14T11:11:05.382Z,996.33
2019-02-14T11:12:05.208Z,996.25
2019-02-14T11:13:05.320Z,996.39
2019-02-14T11:14:04.793Z,996.27
2019-02-14T11:15:05.151Z,996.19
2019-02-14T11:16:05.402Z,996.33
2019-02-14T11:17:04.515Z,996.30
2019-02-14T11:18:05.212Z,996.16
2019-02-14T11:19:04.799Z,996.22
2019-02-14T11:20:04.759Z,996.24
2019-02-14T11:21:04.996Z,996.33
2019-02-14T11:22:05.208Z,996.16
2019-02-14T11:23:05.335Z,996.19
2019-02-14T11:24:05.455Z,996.33
2019-02-14T11:25:04.592Z,996.21
2019-02-14T11:26:05.160Z,996.19
2019-02-14T11:27:05.426Z,996.07
2019-02-14T11:28:05.292Z,996.16
2019-02-14T11:29:04.552Z,996.04
2019-02-14T11:30:05.170Z,996.10
2019-02-14T11:31:05.550Z,996.04
2019-02-14T11:32:04.862Z,996.10
2019-02-14T11:33:05.104Z,996.01
2019-02-14T11:34:05.375Z,996.07
2019-02-14T11:35:05.316Z,996.10
2019-02-14T11:36:04.968Z,996.07
2019-02-14T11:37:05.176Z,995.96
2019-02-14T11:38:05.432Z,996.01
2019-02-14T11:39:04.657Z,996.07
2019-02-14T11:40:04.750Z,995.98
2019-02-14T11:41:05.201Z,996.01
2019-02-14T11:42:05.347Z,995.98
2019-02-14T11:43:05.391Z,995.93
2019-02-14T11:44:04.782Z,995.90
2019-02-14T11:45:04.851Z,995.95
2019-02-14T11:46:04.825Z,995.90
2019-02-14T11:47:10.157Z,995.90
2019-02-14T11:48:04.668Z,995.84
2019-02-14T11:49:04.658Z,995.87
2019-02-14T11:50:06.995Z,995.95
2019-02-14T11:51:04.990Z,996.01
2019-02-14T11:52:05.018Z,996.07
2019-02-14T11:53:14.655Z,995.84
2019-02-14T11:54:05.286Z,995.89
2019-02-14T11:55:04.797Z,996.06
2019-02-14T11:56:04.986Z,995.92
2019-02-14T11:57:04.945Z,995.92
2019-02-14T11:58:04.907Z,995.92
2019-02-14T11:59:04.729Z,995.84
2019-02-14T12:00:04.511Z,995.87
2019-02-14T12:01:04.730Z,995.84
2019-02-14T12:02:04.777Z,995.81
2019-02-14T12:03:04.831Z,995.84
2019-02-14T12:04:05.167Z,995.81
2019-02-14T12:05:04.939Z,995.81
2019-02-14T12:06:04.849Z,995.95
2019-02-14T12:07:05.008Z,995.89
2019-02-14T12:08:05.361Z,995.86
2019-02-14T12:09:05.623Z,995.81
2019-02-14T12:10:13.946Z,995.75
2019-02-14T12:11:04.721Z,995.75
2019-02-14T12:12:04.754Z,995.78
2019-02-14T12:13:04.537Z,995.92
2019-02-14T12:14:04.758Z,995.86
2019-02-14T12:15:04.932Z,995.86
2019-02-14T12:16:04.841Z,995.78
2019-02-14T12:17:04.727Z,995.75
2019-02-14T12:18:05.173Z,995.86
2019-02-14T12:19:05.488Z,995.83
2019-02-14T12:20:05.529Z,995.69
2019-02-14T12:21:05.569Z,995.80
2019-02-14T12:22:04.569Z,995.72
2019-02-14T12:23:04.798Z,995.72
2019-02-14T12:24:05.018Z,995.83
2019-02-14T12:25:05.002Z,995.75
2019-02-14T12:26:06.229Z,995.55
2019-02-14T12:27:04.802Z,995.53
2019-02-14T12:28:05.002Z,995.60